Keswick, IA

12:00 AM CDT on September 29, 2016 (GMT -0500)
hop yard | | Change Station

Elev 856 ft 41.45 °N, 92.34 °W | Updated 20 minutes ago

Clear
Clear
50.9 °F
Feels Like 50.9 °F
N
2.2
Wind Variable Wind from NE

Today
High -- | Low -- °F
--% Chance of Precip.
Yesterday
High -- | Low -- °F
Precip. -- in
Pressure 30.26 in
Visibility 10.0 miles
Clouds Clear
Dew Point 49 °F
Humidity 94%
Rainfall in
Snow Depth Not available.
7:04 AM 6:53 PM
Waning Crescent, 3% visible
METAR KOOA 290455Z AUTO 35006KT 10SM CLR 10/09 A3026 RMK AO2 T01030090
Pressure 30.26 in
Visibility 10.0 miles
Clouds Clear
Dew Point 49 °F
Humidity 94%
Rainfall in
Snow Depth Not available.
7:04 AM 6:53 PM
Waning Crescent, 3% visible
METAR KOOA 290455Z AUTO 35006KT 10SM CLR 10/09 A3026 RMK AO2 T01030090

10-Day Weather Forecast

Almanac

Astronomy

Sep. 29, 2016 Rise Set
Actual Time
Civil Twilight
Nautical Twilight
Astronomical Twilight
Moon
Length of Visible Light
Length of Day
Tomorrow will be .
, % of the Moon is Illuminated

Today's Extremes

State Highs State Lows

Community

WunderPhotos

Upload Photos

1,942,435 photos uploaded!

WunderBlog® & News

Nearby

Air Quality

  Air Quality AQ Index Pollutant
Not available.

Snow Depth

Station Depth Elevation

Earthquake Activity

City Distance Mag. Time & Date
Minimum magnitude displayed is 2.5.

Coastal Water Temperatures

Place Temperature

Stations

Nearby Weather Stations

Station Location Temp. Windchill Dew Point Humidity Wind Precip. Elev Updated Type
                   

Watches & Warnings

There are currently no watches in effect.